This is the latest recevied weather packets stored in our database for station/object KD0RII. If no packets are shown the sender has not sent any weather packets the latest 10 day(s).
| Time | Temp. | Humidity | Pressure | Rain* | Wind** | Luminosity | Snow |
|---|---|---|---|---|---|---|---|
| 1778001084 | 7.78° C | 89% | 1014.3 hPa | 1.27 mm | - | 72 W/m² | - |
| 1778000781 | 8.33° C | 89% | 1014.1 hPa | 1.27 mm | - | 125 W/m² | - |
| 1778000477 | 8.33° C | 89% | 1014.2 hPa | 0 mm | - | 88 W/m² | - |
| 1778000172 | 8.33° C | 89% | 1014.2 hPa | 0 mm | - | 110 W/m² | - |
| 1777999868 | 8.33° C | 88% | 1014.5 hPa | 0 mm | - | 57 W/m² | - |
| 1777999564 | 8.89° C | 88% | 1014.2 hPa | 0 mm | - | 59 W/m² | - |
| 1777999262 | 8.89° C | 89% | 1014.1 hPa | 0 mm | - | 110 W/m² | - |
| 1777998960 | 8.33° C | 89% | 1014.1 hPa | 0 mm | - | 94 W/m² | - |
| 1777998657 | 8.89° C | 90% | 1013.9 hPa | 1.78 mm | - | 126 W/m² | - |
| 1777998349 | 8.89° C | 90% | 1013.7 hPa | 3.05 mm | - | 116 W/m² | - |
| 1777998047 | 8.89° C | 90% | 1013.9 hPa | 1.27 mm | - | 77 W/m² | - |
| 1777997743 | 8.89° C | 90% | 1013.8 hPa | 1.78 mm | - | 97 W/m² | - |
| 1777997441 | 8.89° C | 90% | 1014.2 hPa | 3.05 mm | - | 86 W/m² | - |
| 1777997139 | 8.89° C | 90% | 1014 hPa | 1.27 mm | - | 89 W/m² | - |
| 1777996836 | 8.89° C | 89% | 1013.8 hPa | 1.27 mm | - | 93 W/m² | - |
| 1777996531 | 8.89° C | 89% | 1014.3 hPa | 0 mm | - | 49 W/m² | - |
| 1777996228 | 8.89° C | 89% | 1014.2 hPa | 0 mm | - | 50 W/m² | - |
| 1777995925 | 8.89° C | 89% | 1013.9 hPa | 0 mm | - | 86 W/m² | - |
| 1777995621 | 8.89° C | 89% | 1013.8 hPa | 0 mm | - | 113 W/m² | - |
| 1777995319 | 8.89° C | 89% | 1013.5 hPa | 1.78 mm | - | 119 W/m² | - |
| 1777995015 | 8.33° C | 89% | 1013.7 hPa | 3.05 mm | - | 175 W/m² | - |
| 1777994712 | 8.33° C | 88% | 1013.9 hPa | 1.27 mm | - | 116 W/m² | - |
| 1777994408 | 8.33° C | 88% | 1014.2 hPa | 0 mm | - | 91 W/m² | - |
| 1777994103 | 8.33° C | 89% | 1014.2 hPa | 0 mm | - | 41 W/m² | - |
| 1777993800 | 8.33° C | 89% | 1014 hPa | 0 mm | - | 51 W/m² | - |
* Rain latest hour (hover to see other rain measurements)
** Current wind speed in m/s (hover to see current wind gust speed)